MSS weather

Massena International Richards Field
Massena, New York, United States

Public forecast

Using degrees Fahrenheit for public forecast. Weather courtesy of forecast.io.

Current aviation weather report (METAR) for Massena International Richards Field

Retrieved 2020/06/03 04:53 UTC (50 minutes ago):

KMSS 030453Z AUTO 00000KT 10SM OVC025 14/11 A2970 RMK AO2 SLP058 T01390106 401940067

Aviation forecast (TAF) for Massena International Richards Field

Retrieved 2020-06-03 00:28 UTC (5 hours ago):

TAF KMSS 022326Z 0300/0324 23006KT P6SM OVC035 FM030300 VRB03KT P6SM VCSH BKN026 FM031000 VRB03KT 3SM BR VCSH OVC009 FM031700 28005KT P6SM VCSH OVC015 FM032300 VRB04KT P6SM VCSH BKN045